CYLJ

Details ICAO CYLJ (YLJ)
Name Meadow Lake
Region Canada
Timezone America/Regina (UTC-6.0)
Plans Departing 1
Arriving 3
Stats Elevation 1,576 ft / 480 m (AMSL)
Location 54.124463° -108.517960°
Runways 2
Magnetic Variation 11.745° E
Sunrise 2017-12-16 15:30:05 UTC / 2017-12-16 09:30:05 Local
Sunset 2017-12-16 22:52:23 UTC / 2017-12-16 16:52:23 Local
Advertisement - Login to hide

Runways

ID Width Length Bearing (true) Bearing (mag) Surface Threshold Offset Overrun Length
09 98 ft / 30 m 5,005 ft / 1,525 m 99.99° 88.25° Asphalt 0 ft / 0 m 0 ft / 0 m
17 75 ft / 23 m 2,292 ft / 699 m 180.00° 168.26° Asphalt 0 ft / 0 m 0 ft / 0 m
27 98 ft / 30 m 5,005 ft / 1,525 m 280.01° 268.27° Asphalt 0 ft / 0 m 0 ft / 0 m
35 75 ft / 23 m 2,292 ft / 699 m 0.00° 348.26° Asphalt 0 ft / 0 m 0 ft / 0 m

Map

Weather


0- 5 10 15 20 25 30 35+ Temperature / ° C

Clouds and Precipitation
Forecast for 2017-12-17 00:00 UTC. Updated 2 hours ago

Ground ~20,000 ft ~40,000 ft Winds

METAR

CYLJ 162300Z 24004KT 15SM BKN045 BKN070 M01/M03 A2977 RMK SC6AC1 SLP109

TAF

Not found

Frequencies

Unicom 122.80 MHz CTAF
Approach 124.50 MHz COLD LAKE TRML
Warning: Do not use this data for real-world aviation or navigation. No guarantee of current accuracy is given.